Time;durP1;ratioP1;P1;durP2;ratioP2;P2;SDS_P1;SDS_P2;PMS_P1;PMS_P2;Temp;Humidity;BMP_temperature;BMP_pressure;BME280_temperature;BME280_humidity;BME280_pressure;Samples;Min_cycle;Max_cycle;Signal;HPM_P1;HPM_P2
2023/10/25 00:01:26;;;;;;;12.80;6.30;;;;;;;9.28;99.23;98826.38;109176;1257;72876;-67
2023/10/25 00:04:14;;;;;;;13.10;6.80;;;;;;;9.25;99.75;98825.23;109098;1257;58003;-68
2023/10/25 00:07:02;;;;;;;12.40;7.00;;;;;;;9.22;100.00;98830.52;109103;1260;58769;-67
2023/10/25 00:09:50;;;;;;;13.80;7.30;;;;;;;9.18;100.00;98826.21;109222;1256;73601;-67
2023/10/25 00:12:39;;;;;;;14.60;7.40;;;;;;;9.16;100.00;98819.84;109134;1257;67943;-67
2023/10/25 00:15:27;;;;;;;13.50;7.40;;;;;;;9.16;100.00;98819.20;109082;1257;74897;-68
2023/10/25 00:18:14;;;;;;;14.90;7.60;;;;;;;9.14;100.00;98824.11;109077;1257;58704;-69
2023/10/25 00:21:03;;;;;;;14.40;7.60;;;;;;;9.10;100.00;98827.63;109060;1257;60434;-67
2023/10/25 00:23:51;;;;;;;14.30;7.00;;;;;;;9.08;100.00;98827.89;109203;1256;73846;-67
2023/10/25 00:26:38;;;;;;;14.60;8.60;;;;;;;8.99;100.00;98816.65;109212;1256;67859;-66
2023/10/25 00:29:26;;;;;;;15.10;8.70;;;;;;;8.99;100.00;98825.48;109099;1257;73557;-68
2023/10/25 00:32:16;;;;;;;16.20;8.80;;;;;;;8.97;100.00;98823.86;109083;1257;59569;-68
2023/10/25 00:35:05;;;;;;;19.30;9.40;;;;;;;8.97;100.00;98824.98;109208;1257;60561;-68
2023/10/25 00:37:53;;;;;;;16.70;9.60;;;;;;;8.96;100.00;98823.45;109130;1257;73082;-67
2023/10/25 00:40:41;;;;;;;15.30;9.00;;;;;;;8.96;100.00;98817.27;109210;1257;66837;-67
2023/10/25 00:43:28;;;;;;;18.90;9.50;;;;;;;8.95;100.00;98817.02;109041;1256;72836;-67
2023/10/25 00:46:22;;;;;;;15.90;9.10;;;;;;;8.95;100.00;98819.82;109190;1257;59553;-68
2023/10/25 00:49:10;;;;;;;14.30;8.20;;;;;;;8.96;100.00;98813.87;109061;1257;60078;-67
2023/10/25 00:51:58;;;;;;;15.70;8.80;;;;;;;8.98;100.00;98813.86;109186;1256;73673;-68
2023/10/25 00:54:47;;;;;;;17.80;8.20;;;;;;;8.93;100.00;98819.86;109075;1257;66830;-66
2023/10/25 00:57:36;;;;;;;14.30;7.80;;;;;;;8.86;100.00;98817.98;109224;1257;71364;-65
2023/10/25 01:00:25;;;;;;;15.30;8.70;;;;;;;8.83;100.00;98819.70;109024;1257;59435;-67
2023/10/25 01:03:15;;;;;;;14.00;7.60;;;;;;;8.82;100.00;98813.57;109073;1257;58927;-66
2023/10/25 01:06:03;;;;;;;16.40;8.50;;;;;;;8.81;100.00;98815.45;109111;1257;74067;-67
2023/10/25 01:08:52;;;;;;;15.40;8.50;;;;;;;8.81;100.00;98815.42;109114;1257;66691;-68
2023/10/25 01:11:40;;;;;;;13.40;7.70;;;;;;;8.78;100.00;98812.85;109188;1256;71462;-66
2023/10/25 01:14:29;;;;;;;15.10;7.90;;;;;;;8.75;100.00;98806.73;109141;1257;57800;-67
2023/10/25 01:17:17;;;;;;;16.40;8.30;;;;;;;8.73;100.00;98803.96;109124;1257;60473;-67
2023/10/25 01:20:06;;;;;;;17.60;8.60;;;;;;;8.71;100.00;98805.70;109194;1257;74196;-66
2023/10/25 01:22:54;;;;;;;16.10;8.30;;;;;;;8.72;100.00;98803.65;109196;1257;66438;-67
2023/10/25 01:25:43;;;;;;;15.70;8.40;;;;;;;8.72;100.00;98799.83;109105;1258;72513;-67
2023/10/25 01:28:30;;;;;;;18.60;8.80;;;;;;;8.70;100.00;98797.17;109035;1257;57968;-67
2023/10/25 01:31:18;;;;;;;14.80;8.60;;;;;;;8.69;100.00;98796.73;109108;1257;60252;-65
2023/10/25 01:34:06;;;;;;;16.70;9.10;;;;;;;8.68;100.00;98795.16;109149;1257;72859;-66
2023/10/25 01:36:54;;;;;;;17.10;8.50;;;;;;;8.71;100.00;98795.88;109226;1257;67628;-68
2023/10/25 01:39:42;;;;;;;19.80;8.90;;;;;;;8.71;100.00;98788.23;109031;1257;72729;-67
2023/10/25 01:42:30;;;;;;;17.00;9.10;;;;;;;8.68;100.00;98772.59;109111;1257;59476;-67
2023/10/25 01:45:19;;;;;;;16.60;9.60;;;;;;;8.73;100.00;98771.05;109245;1257;60312;-68
2023/10/25 01:48:08;;;;;;;17.50;9.10;;;;;;;8.70;100.00;98760.88;109066;1257;72983;-71
2023/10/25 01:50:57;;;;;;;18.00;9.50;;;;;;;8.74;100.00;98764.77;109012;1257;66613;-68
2023/10/25 01:53:45;;;;;;;19.70;8.90;;;;;;;8.75;100.00;98758.50;109095;1257;72722;-68
2023/10/25 01:56:32;;;;;;;18.70;9.90;;;;;;;8.75;100.00;98755.52;109072;1257;57884;-68
2023/10/25 01:59:20;;;;;;;24.20;11.80;;;;;;;8.75;100.00;98750.58;109095;1257;59944;-68
2023/10/25 02:02:09;;;;;;;20.50;11.50;;;;;;;8.71;100.00;98742.60;109070;1257;71973;-68
2023/10/25 02:04:56;;;;;;;23.40;11.40;;;;;;;8.75;100.00;98745.76;109070;1257;67905;-68
2023/10/25 02:07:44;;;;;;;23.60;12.50;;;;;;;8.77;100.00;98739.28;109099;1256;72797;-68
2023/10/25 02:10:33;;;;;;;22.50;12.10;;;;;;;8.77;100.00;98737.99;109046;1257;57689;-66
2023/10/25 02:13:21;;;;;;;25.00;14.10;;;;;;;8.76;100.00;98737.02;109193;1257;61293;-67
2023/10/25 02:16:17;;;;;;;26.40;13.80;;;;;;;8.76;100.00;98738.09;109240;1256;73302;-69
2023/10/25 02:19:05;;;;;;;22.50;12.70;;;;;;;8.75;100.00;98735.84;109062;1257;66657;-67
2023/10/25 02:21:53;;;;;;;26.00;14.80;;;;;;;8.76;100.00;98728.74;109220;1261;70513;-67
2023/10/25 02:24:42;;;;;;;25.00;14.90;;;;;;;8.76;100.00;98730.61;109226;1257;60007;-68
2023/10/25 02:27:30;;;;;;;27.00;14.60;;;;;;;8.78;100.00;98722.30;109067;1257;57638;-65
2023/10/25 02:30:17;;;;;;;25.10;14.50;;;;;;;8.81;100.00;98717.83;109208;1257;71892;-67
2023/10/25 02:33:05;;;;;;;26.10;13.80;;;;;;;8.83;100.00;98715.86;109215;1256;67595;-67
2023/10/25 02:35:53;;;;;;;25.90;13.80;;;;;;;8.84;100.00;98713.84;109085;1257;71519;-67
2023/10/25 02:38:41;;;;;;;22.20;12.20;;;;;;;8.84;100.00;98715.20;109079;1257;57290;-68
2023/10/25 02:41:30;;;;;;;22.80;12.50;;;;;;;8.84;100.00;98715.95;109229;1258;60075;-67
2023/10/25 02:44:17;;;;;;;21.80;11.70;;;;;;;8.83;100.00;98715.84;109225;1256;73085;-67
2023/10/25 02:47:06;;;;;;;23.40;12.30;;;;;;;8.84;100.00;98712.73;109103;1256;66675;-66
2023/10/25 02:49:54;;;;;;;24.80;13.70;;;;;;;8.86;100.00;98710.08;109210;1257;71265;-67
2023/10/25 02:52:44;;;;;;;20.80;11.70;;;;;;;8.85;100.00;98703.07;108919;1257;59772;-67
2023/10/25 02:55:35;;;;;;;22.50;12.10;;;;;;;8.85;100.00;98702.35;109084;1257;60208;-66
2023/10/25 02:58:23;;;;;;;22.10;11.20;;;;;;;8.85;100.00;98700.98;109123;1257;72966;-67
2023/10/25 03:01:22;;;;;;;19.20;10.30;;;;;;;8.85;100.00;98698.17;109119;1257;67690;-65
2023/10/25 03:04:10;;;;;;;20.20;11.70;;;;;;;8.86;100.00;98694.52;109034;1263;72445;-68
2023/10/25 03:06:58;;;;;;;24.50;12.50;;;;;;;8.88;100.00;98690.84;109072;1257;60497;-68
2023/10/25 03:09:46;;;;;;;21.70;11.90;;;;;;;8.89;100.00;98688.58;109100;1257;59076;-68
2023/10/25 03:12:34;;;;;;;21.70;11.90;;;;;;;8.91;100.00;98684.69;108998;1257;72899;-67
2023/10/25 03:15:23;;;;;;;23.20;12.10;;;;;;;8.94;100.00;98684.44;109147;1257;67985;-67
2023/10/25 03:18:11;;;;;;;23.80;11.30;;;;;;;8.93;100.00;98680.98;109115;1257;72548;-69
2023/10/25 03:21:03;;;;;;;22.00;10.80;;;;;;;8.93;100.00;98677.13;109102;1257;59040;-67
2023/10/25 03:23:51;;;;;;;21.20;10.90;;;;;;;8.91;100.00;98671.83;109251;1257;59947;-66
2023/10/25 03:26:38;;;;;;;22.10;11.90;;;;;;;8.90;100.00;98670.14;109219;1257;72501;-66
2023/10/25 03:29:26;;;;;;;22.80;12.20;;;;;;;8.89;100.00;98667.60;109102;1257;65737;-67
2023/10/25 03:32:14;;;;;;;23.60;12.10;;;;;;;8.88;100.00;98667.63;109242;1257;71183;-68
2023/10/25 03:35:02;;;;;;;24.20;11.80;;;;;;;8.89;100.00;98666.54;109133;1257;59650;-68
2023/10/25 03:37:50;;;;;;;18.50;9.40;;;;;;;8.89;100.00;98664.20;109133;1256;59081;-66
2023/10/25 03:40:38;;;;;;;20.20;10.50;;;;;;;8.88;100.00;98662.89;109202;1257;72766;-68
2023/10/25 03:43:25;;;;;;;20.40;9.90;;;;;;;8.88;100.00;98665.73;108469;1257;1002307;-68
2023/10/25 03:46:13;;;;;;;21.80;11.30;;;;;;;8.85;100.00;98664.37;109219;1256;71483;-65
2023/10/25 03:49:02;;;;;;;20.90;10.90;;;;;;;8.83;100.00;98660.63;109191;1257;58406;-66
2023/10/25 03:51:49;;;;;;;19.40;10.10;;;;;;;8.82;100.00;98661.45;109150;1257;61235;-69
2023/10/25 03:54:38;;;;;;;19.40;10.20;;;;;;;8.82;100.00;98656.52;109207;1256;71700;-67
2023/10/25 03:57:29;;;;;;;19.90;9.80;;;;;;;8.80;100.00;98653.35;109129;1257;66483;-66
2023/10/25 04:00:17;;;;;;;18.60;10.20;;;;;;;8.79;100.00;98651.01;109117;1257;72816;-66
2023/10/25 04:03:05;;;;;;;18.60;8.40;;;;;;;8.76;100.00;98648.23;109067;1257;57982;-68
2023/10/25 04:05:54;;;;;;;18.10;9.00;;;;;;;8.75;100.00;98644.60;109106;1257;60100;-66
2023/10/25 04:08:41;;;;;;;16.80;9.00;;;;;;;8.75;100.00;98644.48;109101;1257;72900;-66
2023/10/25 04:11:29;;;;;;;18.80;10.10;;;;;;;8.76;100.00;98643.14;108910;1257;67811;-71
2023/10/25 04:14:17;;;;;;;17.20;9.40;;;;;;;8.74;100.00;98638.88;109075;1258;72427;-69
2023/10/25 04:17:05;;;;;;;17.30;8.50;;;;;;;8.75;100.00;98637.77;109176;1256;58434;-68
2023/10/25 04:19:53;;;;;;;20.30;9.50;;;;;;;8.74;100.00;98630.61;109176;1257;61298;-68
2023/10/25 04:22:40;;;;;;;15.40;7.50;;;;;;;8.65;100.00;98617.04;109208;1256;73111;-67
2023/10/25 04:25:28;;;;;;;26.80;12.00;;;;;;;8.68;100.00;98626.28;109123;1257;67957;-68
2023/10/25 04:28:18;;;;;;;27.10;13.40;;;;;;;8.67;100.00;98622.20;108977;1257;71712;-67
2023/10/25 04:31:10;;;;;;;21.60;11.30;;;;;;;8.64;100.00;98615.67;109009;1257;57989;-69
2023/10/25 04:33:59;;;;;;;18.00;9.60;;;;;;;8.63;100.00;98612.11;109099;1257;59198;-69
2023/10/25 04:36:47;;;;;;;16.80;8.40;;;;;;;8.64;100.00;98612.61;109169;1257;71576;-69
2023/10/25 04:39:35;;;;;;;17.20;8.80;;;;;;;8.63;100.00;98607.54;108989;1257;67778;-68
2023/10/25 04:42:22;;;;;;;17.20;7.90;;;;;;;8.63;100.00;98607.02;109061;1257;71211;-70
2023/10/25 04:45:10;;;;;;;18.50;8.30;;;;;;;8.63;100.00;98604.31;109162;1257;59491;-68
2023/10/25 04:47:57;;;;;;;15.30;7.50;;;;;;;8.64;100.00;98601.75;109078;1257;58806;-69
2023/10/25 04:50:46;;;;;;;15.00;8.00;;;;;;;8.64;100.00;98599.86;109109;1256;72946;-68
2023/10/25 04:53:33;;;;;;;13.60;7.40;;;;;;;8.65;100.00;98598.31;109104;1256;69001;-69
2023/10/25 04:56:23;;;;;;;16.30;7.80;;;;;;;8.64;100.00;98596.49;109078;1257;72461;-69
2023/10/25 04:59:10;;;;;;;14.40;6.90;;;;;;;8.63;100.00;98596.01;109082;1257;58022;-68
2023/10/25 05:01:58;;;;;;;14.00;7.00;;;;;;;8.60;100.00;98586.40;109089;1257;59761;-68
2023/10/25 05:04:47;;;;;;;12.10;6.00;;;;;;;8.63;100.00;98596.96;109054;1256;73412;-68
2023/10/25 05:07:39;;;;;;;15.10;7.60;;;;;;;8.62;100.00;98595.06;109151;1257;68667;-67
2023/10/25 05:10:27;;;;;;;14.00;7.00;;;;;;;8.61;100.00;98594.05;109172;1257;73401;-68
2023/10/25 05:13:16;;;;;;;12.30;6.70;;;;;;;8.62;100.00;98595.92;109007;1258;57923;-68
2023/10/25 05:16:04;;;;;;;13.90;6.50;;;;;;;8.63;100.00;98594.61;109140;1256;60087;-69
2023/10/25 05:18:52;;;;;;;12.70;5.80;;;;;;;8.62;100.00;98595.20;109162;1257;73178;-69
2023/10/25 05:21:42;;;;;;;14.80;6.40;;;;;;;8.61;100.00;98591.12;109057;1257;68378;-68
2023/10/25 05:24:30;;;;;;;12.30;6.00;;;;;;;8.62;100.00;98592.08;109075;1257;73505;-67
2023/10/25 05:27:18;;;;;;;11.50;5.50;;;;;;;8.63;100.00;98590.59;108865;1257;237073;-71
2023/10/25 05:30:10;;;;;;;13.50;6.00;;;;;;;8.63;100.00;98590.40;109022;1257;60695;-69
2023/10/25 05:33:01;;;;;;;17.40;8.30;;;;;;;8.62;100.00;98593.93;109038;1256;71934;-70
2023/10/25 05:35:49;;;;;;;19.20;8.60;;;;;;;8.64;100.00;98589.91;109171;1257;66929;-68
2023/10/25 05:38:38;;;;;;;18.70;9.30;;;;;;;8.64;100.00;98596.61;109159;1256;73374;-69
2023/10/25 05:41:27;;;;;;;16.70;8.00;;;;;;;8.64;100.00;98594.47;109097;1257;59677;-70
2023/10/25 05:44:15;;;;;;;15.70;7.70;;;;;;;8.66;100.00;98598.27;109021;1257;58758;-70
2023/10/25 05:47:03;;;;;;;15.50;6.40;;;;;;;8.67;100.00;98599.88;109099;1257;73691;-69
2023/10/25 05:49:52;;;;;;;17.00;7.30;;;;;;;8.63;100.00;98598.81;109172;1256;67852;-68
2023/10/25 05:52:44;;;;;;;16.40;7.60;;;;;;;8.63;100.00;98604.71;109147;1257;72698;-66
2023/10/25 05:55:33;;;;;;;12.90;6.80;;;;;;;8.64;100.00;98606.90;109112;1256;59476;-70
2023/10/25 05:58:20;;;;;;;14.10;6.30;;;;;;;8.65;100.00;98606.61;109105;1257;58318;-69
2023/10/25 06:01:09;;;;;;;13.60;6.50;;;;;;;8.67;100.00;98603.59;108293;1257;1002332;-72
2023/10/25 06:03:59;;;;;;;15.60;7.20;;;;;;;8.68;100.00;98600.88;109039;1257;68159;-68
2023/10/25 06:06:48;;;;;;;14.70;6.60;;;;;;;8.68;100.00;98600.13;109159;1257;71080;-70
2023/10/25 06:09:38;;;;;;;14.50;6.80;;;;;;;8.69;100.00;98595.85;109216;1256;59178;-67
2023/10/25 06:12:26;;;;;;;14.70;7.00;;;;;;;8.69;100.00;98596.91;109193;1256;59030;-68
2023/10/25 06:15:13;;;;;;;16.20;7.40;;;;;;;8.69;100.00;98597.98;109184;1257;73024;-68
2023/10/25 06:18:01;;;;;;;15.90;8.20;;;;;;;8.69;100.00;98598.81;109205;1256;67843;-71
2023/10/25 06:20:49;;;;;;;16.40;8.00;;;;;;;8.71;100.00;98594.44;109105;1257;71219;-69
2023/10/25 06:23:36;;;;;;;15.40;7.60;;;;;;;8.73;100.00;98596.88;109212;1256;59269;-74
2023/10/25 06:26:24;;;;;;;15.20;8.50;;;;;;;8.74;100.00;98595.23;109241;1255;60158;-71
2023/10/25 06:29:12;;;;;;;17.40;8.20;;;;;;;8.75;100.00;98593.86;109173;1256;73066;-69
2023/10/25 06:32:00;;;;;;;15.00;7.30;;;;;;;8.75;100.00;98592.23;109137;1256;67662;-69
2023/10/25 06:34:48;;;;;;;16.50;7.90;;;;;;;8.75;100.00;98593.71;109273;1256;73043;-68
2023/10/25 06:37:36;;;;;;;16.80;8.00;;;;;;;8.75;100.00;98593.30;109275;1256;60606;-68
2023/10/25 06:40:24;;;;;;;15.90;8.50;;;;;;;8.76;100.00;98589.50;109129;1256;58752;-70
2023/10/25 06:43:12;;;;;;;16.30;8.70;;;;;;;8.80;100.00;98592.89;109313;1256;73631;-68
2023/10/25 06:46:00;;;;;;;15.20;8.40;;;;;;;8.83;100.00;98588.38;109169;1256;69022;-68
2023/10/25 06:48:52;;;;;;;16.40;8.90;;;;;;;8.83;100.00;98585.98;109270;1256;71488;-69
2023/10/25 06:51:42;;;;;;;15.60;8.40;;;;;;;8.85;100.00;98584.08;109141;1257;59253;-70
2023/10/25 06:54:30;;;;;;;15.40;7.40;;;;;;;8.83;100.00;98582.53;109178;1257;58938;-72
2023/10/25 06:57:18;;;;;;;14.30;7.40;;;;;;;8.81;100.00;98582.31;109264;1256;71628;-74
2023/10/25 07:00:09;;;;;;;15.80;8.30;;;;;;;8.79;100.00;98578.79;109286;1256;67877;-69
2023/10/25 07:03:02;;;;;;;12.70;5.90;;;;;;;-18.57;79.80;78866.42;108796;1256;1002438;-68
2023/10/25 07:05:50;;;;;;;15.30;7.10;;;;;;;-128.00;-1.00;-1.00;106481;1256;1011115;-69
2023/10/25 07:08:38;;;;;;;17.60;7.80;;;;;;;-128.00;-1.00;-1.00;106602;1256;1011093;-71
2023/10/25 07:11:26;;;;;;;13.70;7.20;;;;;;;-128.00;-1.00;-1.00;106561;1255;1012487;-69
2023/10/25 07:14:14;;;;;;;13.90;6.60;;;;;;;-128.00;-1.00;-1.00;106540;1257;1012900;-66
2023/10/25 07:17:02;;;;;;;17.60;7.20;;;;;;;-128.00;-1.00;-1.00;106598;1260;1012521;-69
2023/10/25 07:19:50;;;;;;;17.70;6.90;;;;;;;-128.00;-1.00;-1.00;106447;1256;1010153;-70
2023/10/25 07:22:38;;;;;;;14.60;6.60;;;;;;;-128.00;-1.00;-1.00;106413;1257;1010183;-69
2023/10/25 07:25:26;;;;;;;14.50;6.70;;;;;;;-128.00;-1.00;-1.00;106422;1256;1012845;-70
2023/10/25 07:28:14;;;;;;;14.10;6.50;;;;;;;-128.00;-1.00;-1.00;106473;1256;1012494;-69
2023/10/25 07:31:02;;;;;;;10.90;5.80;;;;;;;-128.00;-1.00;-1.00;106533;1255;1013619;-67
2023/10/25 07:33:50;;;;;;;11.10;5.30;;;;;;;-128.00;-1.00;-1.00;106471;1256;1009360;-70
2023/10/25 07:36:37;;;;;;;14.10;5.70;;;;;;;-128.00;-1.00;-1.00;106421;1255;1011733;-70
2023/10/25 07:39:25;;;;;;;12.00;6.50;;;;;;;-128.00;-1.00;-1.00;106500;1256;1012816;-71
2023/10/25 07:42:12;;;;;;;11.20;5.70;;;;;;;-128.00;-1.00;-1.00;106594;1257;1012374;-71
2023/10/25 07:45:00;;;;;;;13.20;6.30;;;;;;;-128.00;-1.00;-1.00;106506;1256;1013598;-71
2023/10/25 07:47:48;;;;;;;13.90;6.20;;;;;;;-128.00;-1.00;-1.00;106472;1256;1010035;-72
2023/10/25 07:50:37;;;;;;;11.90;6.10;;;;;;;-128.00;-1.00;-1.00;106435;1256;1010970;-69
2023/10/25 07:53:24;;;;;;;13.80;6.80;;;;;;;-128.00;-1.00;-1.00;106432;1255;1013051;-72
2023/10/25 07:56:12;;;;;;;15.50;7.10;;;;;;;-128.00;-1.00;-1.00;106565;1256;1012841;-68
2023/10/25 07:59:02;;;;;;;13.60;6.20;;;;;;;-128.00;-1.00;-1.00;106427;1257;1011968;-69
2023/10/25 08:01:54;;;;;;;12.50;7.30;;;;;;;-128.00;-1.00;-1.00;106609;1256;1009878;-70
2023/10/25 08:04:42;;;;;;;14.40;6.60;;;;;;;-128.00;-1.00;-1.00;106359;1257;1010717;-69
2023/10/25 08:07:31;;;;;;;13.30;6.30;;;;;;;-128.00;-1.00;-1.00;106438;1256;1014487;-70
2023/10/25 08:10:18;;;;;;;13.60;6.60;;;;;;;-128.00;-1.00;-1.00;106417;1257;1012174;-69
2023/10/25 08:13:06;;;;;;;12.00;6.30;;;;;;;-128.00;-1.00;-1.00;106582;1256;1013337;-70
2023/10/25 08:15:58;;;;;;;13.50;6.50;;;;;;;-128.00;-1.00;-1.00;106631;1256;1009006;-69
2023/10/25 08:18:46;;;;;;;11.90;5.70;;;;;;;-128.00;-1.00;-1.00;106514;1256;1011067;-69
2023/10/25 08:21:37;;;;;;;13.50;6.50;;;;;;;-128.00;-1.00;-1.00;106473;1257;1014032;-68
2023/10/25 08:24:25;;;;;;;11.60;6.20;;;;;;;-128.00;-1.00;-1.00;106483;1256;1012866;-68
2023/10/25 08:27:12;;;;;;;10.90;5.90;;;;;;;-128.00;-1.00;-1.00;106431;1257;1013524;-68
2023/10/25 08:30:00;;;;;;;14.80;6.90;;;;;;;-128.00;-1.00;-1.00;106577;1256;1009127;-69
2023/10/25 08:32:47;;;;;;;14.00;7.10;;;;;;;-128.00;-1.00;-1.00;106438;1256;1010427;-69
2023/10/25 08:35:36;;;;;;;14.50;6.00;;;;;;;-128.00;-1.00;-1.00;106572;1256;1013121;-69
2023/10/25 08:38:24;;;;;;;16.60;6.40;;;;;;;-128.00;-1.00;-1.00;106513;1256;1012506;-68
2023/10/25 08:41:12;;;;;;;14.20;6.10;;;;;;;-128.00;-1.00;-1.00;106611;1256;1013068;-68
2023/10/25 08:43:59;;;;;;;19.40;7.70;;;;;;;-128.00;-1.00;-1.00;106588;1256;1009601;-72
2023/10/25 08:46:49;;;;;;;17.50;6.90;;;;;;;-128.00;-1.00;-1.00;106474;1256;1010329;-69
2023/10/25 08:49:37;;;;;;;21.50;8.00;;;;;;;-128.00;-1.00;-1.00;106548;1256;1012487;-69
2023/10/25 08:52:25;;;;;;;16.00;6.80;;;;;;;-128.00;-1.00;-1.00;106429;1257;1012468;-68
2023/10/25 08:55:14;;;;;;;13.50;6.00;;;;;;;-128.00;-1.00;-1.00;106561;1256;1012637;-68
2023/10/25 08:58:02;;;;;;;12.00;5.40;;;;;;;-128.00;-1.00;-1.00;106464;1255;1009402;-67
2023/10/25 09:00:52;;;;;;;13.00;6.10;;;;;;;-128.00;-1.00;-1.00;106512;1255;1011856;-69
2023/10/25 09:03:41;;;;;;;12.50;5.10;;;;;;;-128.00;-1.00;-1.00;106612;1256;1013030;-70
2023/10/25 09:06:30;;;;;;;10.60;4.60;;;;;;;-128.00;-1.00;-1.00;106449;1257;1011823;-69
2023/10/25 09:09:17;;;;;;;13.40;5.60;;;;;;;-128.00;-1.00;-1.00;106474;1257;1013636;-69
2023/10/25 09:12:05;;;;;;;11.30;4.50;;;;;;;-128.00;-1.00;-1.00;106444;1257;1009137;-72
2023/10/25 09:14:52;;;;;;;13.50;4.70;;;;;;;-128.00;-1.00;-1.00;106548;1256;1011202;-69
2023/10/25 09:17:40;;;;;;;11.50;4.40;;;;;;;-128.00;-1.00;-1.00;106457;1256;1012163;-68
2023/10/25 09:20:29;;;;;;;8.80;4.00;;;;;;;-128.00;-1.00;-1.00;106625;1256;1011826;-71
2023/10/25 09:23:18;;;;;;;12.20;4.10;;;;;;;-128.00;-1.00;-1.00;106427;1257;1012552;-68
2023/10/25 09:26:16;;;;;;;10.00;4.20;;;;;;;-128.00;-1.00;-1.00;106416;1256;1009053;-70
2023/10/25 09:29:07;;;;;;;10.60;4.30;;;;;;;-128.00;-1.00;-1.00;106534;1256;1011507;-70
2023/10/25 09:32:06;;;;;;;10.00;4.30;;;;;;;-128.00;-1.00;-1.00;106622;1256;1013208;-68
2023/10/25 09:34:53;;;;;;;10.90;4.30;;;;;;;-128.00;-1.00;-1.00;106485;1258;1012160;-68
2023/10/25 09:37:41;;;;;;;13.00;5.60;;;;;;;-128.00;-1.00;-1.00;106606;1256;1012514;-68
2023/10/25 09:40:29;;;;;;;10.80;5.40;;;;;;;-128.00;-1.00;-1.00;106653;1255;1010640;-68
2023/10/25 09:43:20;;;;;;;9.50;4.00;;;;;;;-128.00;-1.00;-1.00;106394;1256;1011324;-68
2023/10/25 09:46:09;;;;;;;12.90;4.70;;;;;;;-128.00;-1.00;-1.00;106655;1256;1013336;-69
2023/10/25 09:49:09;;;;;;;11.00;4.30;;;;;;;-128.00;-1.00;-1.00;106454;1256;1011856;-68
2023/10/25 09:52:07;;;;;;;9.80;3.70;;;;;;;-128.00;-1.00;-1.00;106483;1256;1014152;-68
2023/10/25 09:55:28;;;;;;;10.20;4.20;;;;;;;-128.00;-1.00;-1.00;106411;1256;1009620;-70
2023/10/25 09:58:18;;;;;;;12.60;4.50;;;;;;;-128.00;-1.00;-1.00;106195;1260;1010972;-68
2023/10/25 10:01:08;;;;;;;8.90;4.20;;;;;;;-128.00;-1.00;-1.00;106194;1260;1012985;-68
2023/10/25 10:04:26;;;;;;;11.70;4.50;;;;;;;-128.00;-1.00;-1.00;106238;1261;1012561;-70
2023/10/25 10:07:31;;;;;;;10.80;5.30;;;;;;;-128.00;-1.00;-1.00;106207;1260;1013058;-67
2023/10/25 10:10:39;;;;;;;10.00;4.40;;;;;;;-128.00;-1.00;-1.00;106256;1260;1009566;-69
2023/10/25 10:13:27;;;;;;;9.70;4.00;;;;;;;-128.00;-1.00;-1.00;106243;1260;1011592;-68
2023/10/25 10:16:18;;;;;;;9.30;3.90;;;;;;;-128.00;-1.00;-1.00;106180;1260;1012614;-70
2023/10/25 10:19:11;;;;;;;10.20;3.70;;;;;;;-128.00;-1.00;-1.00;106213;1260;1013321;-70
2023/10/25 10:22:06;;;;;;;10.30;4.00;;;;;;;-128.00;-1.00;-1.00;106220;1260;1012874;-71
2023/10/25 10:25:00;;;;;;;8.00;3.60;;;;;;;-128.00;-1.00;-1.00;106267;1260;1010128;-71
2023/10/25 10:27:54;;;;;;;9.70;3.80;;;;;;;-128.00;-1.00;-1.00;106226;1260;1011322;-70
2023/10/25 10:30:42;;;;;;;10.70;3.90;;;;;;;-128.00;-1.00;-1.00;106258;1260;1012637;-68
2023/10/25 10:33:35;;;;;;;11.20;3.90;;;;;;;-128.00;-1.00;-1.00;106270;1256;1012722;-68
2023/10/25 10:36:30;;;;;;;9.30;3.80;;;;;;;-128.00;-1.00;-1.00;106470;1257;1013226;-71
2023/10/25 10:39:19;;;;;;;10.30;3.50;;;;;;;-128.00;-1.00;-1.00;106574;1256;1009190;-71
2023/10/25 10:42:07;;;;;;;9.70;3.20;;;;;;;-128.00;-1.00;-1.00;106537;1256;1010897;-69
2023/10/25 10:44:59;;;;;;;9.10;3.20;;;;;;;-128.00;-1.00;-1.00;106468;1255;1012275;-69
2023/10/25 10:48:06;;;;;;;7.90;2.80;;;;;;;-128.00;-1.00;-1.00;106452;1257;1012417;-69
2023/10/25 10:50:54;;;;;;;7.30;3.00;;;;;;;-128.00;-1.00;-1.00;106622;1256;1012993;-69
2023/10/25 10:53:44;;;;;;;8.00;2.90;;;;;;;-128.00;-1.00;-1.00;106473;1256;1009512;-69
2023/10/25 10:56:33;;;;;;;9.90;3.10;;;;;;;-128.00;-1.00;-1.00;106480;1256;1011550;-69
2023/10/25 10:59:28;;;;;;;8.90;2.60;;;;;;;-128.00;-1.00;-1.00;106602;1256;1013039;-69
2023/10/25 11:02:17;;;;;;;7.50;2.40;;;;;;;-128.00;-1.00;-1.00;106643;1256;1013155;-70
2023/10/25 11:05:06;;;;;;;9.40;2.90;;;;;;;-128.00;-1.00;-1.00;106501;1256;1012938;-68
2023/10/25 11:07:54;;;;;;;9.00;3.80;;;;;;;-128.00;-1.00;-1.00;106475;1255;1010081;-70
2023/10/25 11:10:42;;;;;;;9.00;3.30;;;;;;;-128.00;-1.00;-1.00;106694;1256;1012013;-68
2023/10/25 11:13:30;;;;;;;7.60;2.60;;;;;;;-128.00;-1.00;-1.00;106452;1256;1012505;-69
2023/10/25 11:16:18;;;;;;;9.80;2.60;;;;;;;-128.00;-1.00;-1.00;106513;1256;1012834;-71
2023/10/25 11:19:07;;;;;;;8.90;2.40;;;;;;;-128.00;-1.00;-1.00;106485;1256;1012711;-69
2023/10/25 11:21:55;;;;;;;8.50;2.70;;;;;;;-128.00;-1.00;-1.00;106493;1258;1009472;-69
2023/10/25 11:24:46;;;;;;;9.50;2.70;;;;;;;-128.00;-1.00;-1.00;106565;1256;1010754;-67
2023/10/25 11:27:35;;;;;;;7.50;2.40;;;;;;;-128.00;-1.00;-1.00;106581;1257;1012758;-67
2023/10/25 11:30:25;;;;;;;7.20;2.60;;;;;;;-128.00;-1.00;-1.00;106455;1256;1012708;-72
2023/10/25 11:33:13;;;;;;;9.50;2.80;;;;;;;-128.00;-1.00;-1.00;106650;1255;1013452;-68
2023/10/25 11:36:02;;;;;;;6.80;2.60;;;;;;;-128.00;-1.00;-1.00;106595;1256;1010468;-68
2023/10/25 11:38:50;;;;;;;9.10;3.30;;;;;;;-128.00;-1.00;-1.00;106677;1256;1010966;-71
2023/10/25 11:41:38;;;;;;;7.60;2.50;;;;;;;-128.00;-1.00;-1.00;106648;1256;1011974;-70
2023/10/25 11:44:27;;;;;;;7.50;2.10;;;;;;;-128.00;-1.00;-1.00;106385;1256;1012930;-69
2023/10/25 11:47:21;;;;;;;7.90;2.20;;;;;;;-128.00;-1.00;-1.00;106462;1256;1012872;-70
2023/10/25 11:50:13;;;;;;;8.90;3.40;;;;;;;-128.00;-1.00;-1.00;106275;1256;1009705;-71
2023/10/25 11:53:01;;;;;;;9.30;2.50;;;;;;;-128.00;-1.00;-1.00;106435;1256;1011461;-68
2023/10/25 11:55:50;;;;;;;7.60;2.60;;;;;;;-128.00;-1.00;-1.00;106614;1256;1012499;-66
2023/10/25 11:58:38;;;;;;;7.60;2.30;;;;;;;-128.00;-1.00;-1.00;106488;1259;1011693;-68
2023/10/25 12:01:25;;;;;;;10.80;2.50;;;;;;;-128.00;-1.00;-1.00;106409;1257;1012611;-68
2023/10/25 12:04:13;;;;;;;9.60;3.20;;;;;;;-128.00;-1.00;-1.00;106402;1256;1009708;-69
2023/10/25 12:07:01;;;;;;;8.20;2.30;;;;;;;-128.00;-1.00;-1.00;106642;1256;1010834;-67
2023/10/25 12:09:53;;;;;;;6.60;2.40;;;;;;;-128.00;-1.00;-1.00;106434;1256;1013817;-70
2023/10/25 12:12:41;;;;;;;8.40;2.30;;;;;;;-128.00;-1.00;-1.00;106620;1256;1012487;-68
2023/10/25 12:15:29;;;;;;;7.50;2.00;;;;;;;-128.00;-1.00;-1.00;106456;1256;1013028;-67
2023/10/25 12:18:17;;;;;;;9.50;2.40;;;;;;;-128.00;-1.00;-1.00;106540;1257;1009902;-70
2023/10/25 12:21:06;;;;;;;8.70;2.50;;;;;;;-128.00;-1.00;-1.00;106453;1256;1011582;-67
2023/10/25 12:23:54;;;;;;;7.20;2.40;;;;;;;-128.00;-1.00;-1.00;106447;1257;1012309;-67
2023/10/25 12:26:41;;;;;;;8.60;2.30;;;;;;;-128.00;-1.00;-1.00;106605;1256;1012111;-69
2023/10/25 12:29:29;;;;;;;8.40;2.30;;;;;;;-128.00;-1.00;-1.00;106368;1256;1013464;-69
2023/10/25 12:32:21;;;;;;;6.30;2.10;;;;;;;-128.00;-1.00;-1.00;106435;1256;1010107;-68
2023/10/25 12:35:09;;;;;;;5.90;2.20;;;;;;;-128.00;-1.00;-1.00;106651;1256;1011992;-69
2023/10/25 12:37:57;;;;;;;7.00;1.70;;;;;;;-128.00;-1.00;-1.00;106573;1256;1012664;-70
2023/10/25 12:40:44;;;;;;;5.70;1.90;;;;;;;-128.00;-1.00;-1.00;106446;1260;1012860;-69
2023/10/25 12:43:32;;;;;;;6.30;2.20;;;;;;;-128.00;-1.00;-1.00;106453;1256;1013221;-68
2023/10/25 12:46:20;;;;;;;6.30;2.00;;;;;;;-128.00;-1.00;-1.00;106382;1256;1009665;-71
2023/10/25 12:49:09;;;;;;;6.70;2.10;;;;;;;-128.00;-1.00;-1.00;106448;1256;1011282;-70
2023/10/25 12:51:57;;;;;;;7.00;2.10;;;;;;;-128.00;-1.00;-1.00;106467;1256;1012941;-71
2023/10/25 12:54:45;;;;;;;5.60;1.80;;;;;;;-128.00;-1.00;-1.00;106537;1257;1013029;-69